sensor_id;sensor_type;location;lat;lon;timestamp;P1;durP1;ratioP1;P2;durP2;ratioP2
16820;SDS011;8527;49.740;6.604;2023-04-24T00:04:16;1.17;;;0.35;;
16820;SDS011;8527;49.740;6.604;2023-04-24T00:09:21;6.50;;;0.83;;
16820;SDS011;8527;49.740;6.604;2023-04-24T00:14:19;0.30;;;0.30;;
16820;SDS011;8527;49.740;6.604;2023-04-24T00:19:20;0.95;;;0.40;;
16820;SDS011;8527;49.740;6.604;2023-04-24T00:24:19;1.70;;;0.47;;
16820;SDS011;8527;49.740;6.604;2023-04-24T00:29:17;1.08;;;0.60;;
16820;SDS011;8527;49.740;6.604;2023-04-24T00:34:16;2.40;;;0.60;;
16820;SDS011;8527;49.740;6.604;2023-04-24T00:39:20;1.05;;;0.52;;
16820;SDS011;8527;49.740;6.604;2023-04-24T00:44:19;2.47;;;0.75;;
16820;SDS011;8527;49.740;6.604;2023-04-24T00:49:17;2.05;;;0.80;;
16820;SDS011;8527;49.740;6.604;2023-04-24T00:54:19;3.15;;;1.02;;
16820;SDS011;8527;49.740;6.604;2023-04-24T00:59:23;1.00;;;1.00;;
16820;SDS011;8527;49.740;6.604;2023-04-24T01:04:21;1.20;;;1.20;;
16820;SDS011;8527;49.740;6.604;2023-04-24T01:09:23;1.85;;;1.38;;
16820;SDS011;8527;49.740;6.604;2023-04-24T01:14:24;3.42;;;1.80;;
16820;SDS011;8527;49.740;6.604;2023-04-24T01:19:23;4.07;;;1.92;;
16820;SDS011;8527;49.740;6.604;2023-04-24T01:24:24;4.07;;;2.03;;
16820;SDS011;8527;49.740;6.604;2023-04-24T01:29:22;4.30;;;2.20;;
16820;SDS011;8527;49.740;6.604;2023-04-24T01:34:21;3.50;;;2.00;;
16820;SDS011;8527;49.740;6.604;2023-04-24T01:39:19;3.28;;;2.50;;
16820;SDS011;8527;49.740;6.604;2023-04-24T01:44:23;5.00;;;2.80;;
16820;SDS011;8527;49.740;6.604;2023-04-24T01:49:21;3.70;;;2.83;;
16820;SDS011;8527;49.740;6.604;2023-04-24T01:54:23;4.82;;;2.67;;
16820;SDS011;8527;49.740;6.604;2023-04-24T01:59:24;3.97;;;3.05;;
16820;SDS011;8527;49.740;6.604;2023-04-24T02:04:25;7.35;;;3.30;;
16820;SDS011;8527;49.740;6.604;2023-04-24T02:09:25;3.10;;;2.80;;
16820;SDS011;8527;49.740;6.604;2023-04-24T02:14:26;4.70;;;3.10;;
16820;SDS011;8527;49.740;6.604;2023-04-24T02:19:25;9.85;;;3.33;;
16820;SDS011;8527;49.740;6.604;2023-04-24T02:24:24;7.18;;;3.63;;
16820;SDS011;8527;49.740;6.604;2023-04-24T02:29:28;4.68;;;3.20;;
16820;SDS011;8527;49.740;6.604;2023-04-24T02:34:26;4.75;;;3.40;;
16820;SDS011;8527;49.740;6.604;2023-04-24T02:39:25;5.25;;;3.70;;
16820;SDS011;8527;49.740;6.604;2023-04-24T02:44:23;4.35;;;3.75;;
16820;SDS011;8527;49.740;6.604;2023-04-24T02:49:24;5.05;;;3.17;;
16820;SDS011;8527;49.740;6.604;2023-04-24T02:54:25;4.63;;;3.45;;
16820;SDS011;8527;49.740;6.604;2023-04-24T02:59:29;5.90;;;3.42;;
16820;SDS011;8527;49.740;6.604;2023-04-24T03:04:31;4.70;;;3.30;;
16820;SDS011;8527;49.740;6.604;2023-04-24T03:09:35;3.88;;;2.90;;
16820;SDS011;8527;49.740;6.604;2023-04-24T03:14:33;5.38;;;3.30;;
16820;SDS011;8527;49.740;6.604;2023-04-24T03:19:34;4.63;;;3.33;;
16820;SDS011;8527;49.740;6.604;2023-04-24T03:24:32;7.75;;;3.58;;
16820;SDS011;8527;49.740;6.604;2023-04-24T03:29:31;5.10;;;3.40;;
16820;SDS011;8527;49.740;6.604;2023-04-24T03:34:30;5.63;;;3.60;;
16820;SDS011;8527;49.740;6.604;2023-04-24T03:39:32;7.35;;;3.75;;
16820;SDS011;8527;49.740;6.604;2023-04-24T03:44:33;5.43;;;3.90;;
16820;SDS011;8527;49.740;6.604;2023-04-24T03:49:32;6.47;;;4.55;;
16820;SDS011;8527;49.740;6.604;2023-04-24T03:54:33;9.13;;;5.18;;
16820;SDS011;8527;49.740;6.604;2023-04-24T03:59:31;7.47;;;5.82;;
16820;SDS011;8527;49.740;6.604;2023-04-24T04:04:32;9.07;;;5.18;;
16820;SDS011;8527;49.740;6.604;2023-04-24T04:09:33;8.13;;;5.18;;
16820;SDS011;8527;49.740;6.604;2023-04-24T04:14:31;6.35;;;5.10;;
16820;SDS011;8527;49.740;6.604;2023-04-24T04:19:29;9.07;;;5.88;;
16820;SDS011;8527;49.740;6.604;2023-04-24T04:24:28;12.23;;;6.38;;
16820;SDS011;8527;49.740;6.604;2023-04-24T04:29:29;11.90;;;6.57;;
16820;SDS011;8527;49.740;6.604;2023-04-24T04:34:34;8.23;;;5.77;;
16820;SDS011;8527;49.740;6.604;2023-04-24T04:39:32;9.38;;;6.55;;
16820;SDS011;8527;49.740;6.604;2023-04-24T04:44:33;10.30;;;6.32;;
16820;SDS011;8527;49.740;6.604;2023-04-24T04:49:35;11.48;;;7.35;;
16820;SDS011;8527;49.740;6.604;2023-04-24T04:54:33;12.48;;;6.20;;
16820;SDS011;8527;49.740;6.604;2023-04-24T04:59:34;10.60;;;6.43;;
16820;SDS011;8527;49.740;6.604;2023-04-24T05:04:32;8.88;;;5.60;;
16820;SDS011;8527;49.740;6.604;2023-04-24T05:09:31;9.90;;;5.53;;
16820;SDS011;8527;49.740;6.604;2023-04-24T05:14:29;8.25;;;5.60;;
16820;SDS011;8527;49.740;6.604;2023-04-24T05:19:30;8.50;;;5.40;;
16820;SDS011;8527;49.740;6.604;2023-04-24T05:24:32;7.10;;;5.28;;
16820;SDS011;8527;49.740;6.604;2023-04-24T05:29:31;7.07;;;5.00;;
16820;SDS011;8527;49.740;6.604;2023-04-24T05:34:32;8.80;;;4.78;;
16820;SDS011;8527;49.740;6.604;2023-04-24T05:39:30;8.20;;;5.05;;
16820;SDS011;8527;49.740;6.604;2023-04-24T05:44:31;5.35;;;4.40;;
16820;SDS011;8527;49.740;6.604;2023-04-24T05:49:32;8.45;;;4.60;;
16820;SDS011;8527;49.740;6.604;2023-04-24T05:54:31;6.03;;;4.22;;
16820;SDS011;8527;49.740;6.604;2023-04-24T05:59:29;5.88;;;4.18;;
16820;SDS011;8527;49.740;6.604;2023-04-24T06:04:27;7.13;;;4.28;;
16820;SDS011;8527;49.740;6.604;2023-04-24T06:09:31;6.25;;;4.22;;
16820;SDS011;8527;49.740;6.604;2023-04-24T06:14:33;7.18;;;4.25;;
16820;SDS011;8527;49.740;6.604;2023-04-24T06:19:31;5.55;;;4.38;;
16820;SDS011;8527;49.740;6.604;2023-04-24T06:24:33;6.30;;;4.32;;
16820;SDS011;8527;49.740;6.604;2023-04-24T06:29:35;6.53;;;4.32;;
16820;SDS011;8527;49.740;6.604;2023-04-24T06:34:34;7.85;;;5.07;;
16820;SDS011;8527;49.740;6.604;2023-04-24T06:39:35;11.60;;;5.20;;
16820;SDS011;8527;49.740;6.604;2023-04-24T06:44:34;8.95;;;5.55;;
16820;SDS011;8527;49.740;6.604;2023-04-24T06:49:35;7.63;;;4.80;;
16820;SDS011;8527;49.740;6.604;2023-04-24T06:54:37;9.80;;;5.53;;
16820;SDS011;8527;49.740;6.604;2023-04-24T06:59:35;7.13;;;4.70;;
16820;SDS011;8527;49.740;6.604;2023-04-24T07:04:34;5.57;;;4.22;;
16820;SDS011;8527;49.740;6.604;2023-04-24T07:09:32;7.40;;;4.60;;
16820;SDS011;8527;49.740;6.604;2023-04-24T07:14:36;7.22;;;4.65;;
16820;SDS011;8527;49.740;6.604;2023-04-24T07:19:38;6.82;;;4.90;;
16820;SDS011;8527;49.740;6.604;2023-04-24T07:24:41;7.80;;;5.00;;
16820;SDS011;8527;49.740;6.604;2023-04-24T07:29:45;8.95;;;5.03;;
16820;SDS011;8527;49.740;6.604;2023-04-24T07:34:44;13.18;;;5.63;;
16820;SDS011;8527;49.740;6.604;2023-04-24T07:39:42;8.43;;;5.10;;
16820;SDS011;8527;49.740;6.604;2023-04-24T07:44:41;9.02;;;5.32;;
16820;SDS011;8527;49.740;6.604;2023-04-24T07:49:46;8.80;;;5.35;;
16820;SDS011;8527;49.740;6.604;2023-04-24T07:54:44;8.85;;;4.93;;
16820;SDS011;8527;49.740;6.604;2023-04-24T07:59:42;7.28;;;5.57;;
16820;SDS011;8527;49.740;6.604;2023-04-24T08:04:43;9.15;;;5.25;;
16820;SDS011;8527;49.740;6.604;2023-04-24T08:09:42;9.80;;;5.82;;
16820;SDS011;8527;49.740;6.604;2023-04-24T08:14:40;9.68;;;5.70;;
16820;SDS011;8527;49.740;6.604;2023-04-24T08:19:42;11.85;;;5.63;;
16820;SDS011;8527;49.740;6.604;2023-04-24T08:24:43;6.80;;;5.13;;
16820;SDS011;8527;49.740;6.604;2023-04-24T08:29:42;6.88;;;4.95;;
16820;SDS011;8527;49.740;6.604;2023-04-24T08:34:43;12.13;;;5.50;;
16820;SDS011;8527;49.740;6.604;2023-04-24T08:39:41;10.88;;;5.15;;
16820;SDS011;8527;49.740;6.604;2023-04-24T08:44:39;11.57;;;5.60;;
16820;SDS011;8527;49.740;6.604;2023-04-24T08:49:39;7.63;;;4.93;;
16820;SDS011;8527;49.740;6.604;2023-04-24T08:54:40;8.43;;;5.22;;
16820;SDS011;8527;49.740;6.604;2023-04-24T08:59:41;8.20;;;5.30;;
16820;SDS011;8527;49.740;6.604;2023-04-24T09:04:40;8.48;;;4.90;;
16820;SDS011;8527;49.740;6.604;2023-04-24T09:09:43;9.45;;;5.45;;
16820;SDS011;8527;49.740;6.604;2023-04-24T09:14:42;7.35;;;5.15;;
16820;SDS011;8527;49.740;6.604;2023-04-24T09:19:41;9.27;;;5.63;;
16820;SDS011;8527;49.740;6.604;2023-04-24T09:24:40;8.90;;;5.47;;
16820;SDS011;8527;49.740;6.604;2023-04-24T09:29:41;10.93;;;5.40;;
16820;SDS011;8527;49.740;6.604;2023-04-24T09:35:04;13.77;;;6.25;;
16820;SDS011;8527;49.740;6.604;2023-04-24T09:40:07;9.65;;;6.05;;
16820;SDS011;8527;49.740;6.604;2023-04-24T09:45:16;11.65;;;6.50;;
16820;SDS011;8527;49.740;6.604;2023-04-24T09:50:17;12.07;;;6.05;;
16820;SDS011;8527;49.740;6.604;2023-04-24T09:55:17;12.02;;;6.47;;
16820;SDS011;8527;49.740;6.604;2023-04-24T10:00:26;10.00;;;6.15;;
16820;SDS011;8527;49.740;6.604;2023-04-24T10:05:28;10.32;;;6.05;;
16820;SDS011;8527;49.740;6.604;2023-04-24T10:10:32;8.75;;;5.82;;
16820;SDS011;8527;49.740;6.604;2023-04-24T10:15:35;8.68;;;5.50;;
16820;SDS011;8527;49.740;6.604;2023-04-24T10:20:36;8.57;;;4.68;;
16820;SDS011;8527;49.740;6.604;2023-04-24T10:25:36;8.88;;;4.10;;
16820;SDS011;8527;49.740;6.604;2023-04-24T10:30:37;8.00;;;4.35;;
16820;SDS011;8527;49.740;6.604;2023-04-24T10:35:42;5.65;;;4.00;;
16820;SDS011;8527;49.740;6.604;2023-04-24T10:40:44;5.80;;;4.10;;
16820;SDS011;8527;49.740;6.604;2023-04-24T10:45:45;5.72;;;3.70;;
16820;SDS011;8527;49.740;6.604;2023-04-24T10:50:58;6.18;;;3.80;;
16820;SDS011;8527;49.740;6.604;2023-04-24T10:56:02;6.97;;;3.47;;
16820;SDS011;8527;49.740;6.604;2023-04-24T11:01:04;8.35;;;4.20;;
16820;SDS011;8527;49.740;6.604;2023-04-24T11:06:03;6.07;;;3.47;;
16820;SDS011;8527;49.740;6.604;2023-04-24T11:11:12;5.47;;;3.88;;
16820;SDS011;8527;49.740;6.604;2023-04-24T11:16:16;6.95;;;3.60;;
16820;SDS011;8527;49.740;6.604;2023-04-24T11:21:19;4.28;;;3.22;;
16820;SDS011;8527;49.740;6.604;2023-04-24T11:26:26;8.05;;;3.95;;
16820;SDS011;8527;49.740;6.604;2023-04-24T11:31:45;5.85;;;3.72;;
16820;SDS011;8527;49.740;6.604;2023-04-24T11:36:46;7.68;;;3.85;;
16820;SDS011;8527;49.740;6.604;2023-04-24T11:41:45;5.35;;;4.13;;
16820;SDS011;8527;49.740;6.604;2023-04-24T11:46:47;9.93;;;4.32;;
16820;SDS011;8527;49.740;6.604;2023-04-24T11:51:45;6.47;;;3.97;;
16820;SDS011;8527;49.740;6.604;2023-04-24T11:56:44;7.43;;;4.28;;
16820;SDS011;8527;49.740;6.604;2023-04-24T12:01:43;6.47;;;4.60;;
16820;SDS011;8527;49.740;6.604;2023-04-24T12:07:00;7.32;;;4.78;;
16820;SDS011;8527;49.740;6.604;2023-04-24T12:12:00;7.50;;;4.80;;
16820;SDS011;8527;49.740;6.604;2023-04-24T12:17:01;9.80;;;5.13;;
16820;SDS011;8527;49.740;6.604;2023-04-24T12:22:01;7.78;;;4.30;;
16820;SDS011;8527;49.740;6.604;2023-04-24T12:27:01;7.20;;;4.75;;
16820;SDS011;8527;49.740;6.604;2023-04-24T12:32:02;11.15;;;6.22;;
16820;SDS011;8527;49.740;6.604;2023-04-24T12:37:09;8.25;;;5.15;;
16820;SDS011;8527;49.740;6.604;2023-04-24T12:42:08;7.43;;;4.30;;
16820;SDS011;8527;49.740;6.604;2023-04-24T12:47:09;7.60;;;4.32;;
16820;SDS011;8527;49.740;6.604;2023-04-24T12:52:08;7.53;;;4.35;;
16820;SDS011;8527;49.740;6.604;2023-04-24T12:57:09;7.70;;;4.43;;
16820;SDS011;8527;49.740;6.604;2023-04-24T13:02:11;7.93;;;4.50;;
16820;SDS011;8527;49.740;6.604;2023-04-24T13:07:12;7.70;;;4.63;;
16820;SDS011;8527;49.740;6.604;2023-04-24T13:12:13;7.03;;;4.38;;
16820;SDS011;8527;49.740;6.604;2023-04-24T13:17:15;5.90;;;4.45;;
16820;SDS011;8527;49.740;6.604;2023-04-24T13:22:14;7.50;;;4.57;;
16820;SDS011;8527;49.740;6.604;2023-04-24T13:27:13;5.85;;;4.18;;
16820;SDS011;8527;49.740;6.604;2023-04-24T13:32:17;7.10;;;4.57;;
16820;SDS011;8527;49.740;6.604;2023-04-24T13:37:15;5.75;;;3.90;;
16820;SDS011;8527;49.740;6.604;2023-04-24T13:42:13;11.02;;;4.10;;
16820;SDS011;8527;49.740;6.604;2023-04-24T13:47:13;6.07;;;4.00;;
16820;SDS011;8527;49.740;6.604;2023-04-24T13:52:14;6.20;;;3.85;;
16820;SDS011;8527;49.740;6.604;2023-04-24T13:57:13;5.45;;;3.92;;
16820;SDS011;8527;49.740;6.604;2023-04-24T14:02:13;6.35;;;4.10;;
16820;SDS011;8527;49.740;6.604;2023-04-24T14:07:17;7.38;;;4.55;;
16820;SDS011;8527;49.740;6.604;2023-04-24T14:12:16;8.98;;;4.55;;
16820;SDS011;8527;49.740;6.604;2023-04-24T14:17:16;6.07;;;4.80;;
16820;SDS011;8527;49.740;6.604;2023-04-24T14:22:14;9.10;;;4.95;;
16820;SDS011;8527;49.740;6.604;2023-04-24T14:27:15;9.43;;;5.13;;
16820;SDS011;8527;49.740;6.604;2023-04-24T14:32:16;8.10;;;4.32;;
16820;SDS011;8527;49.740;6.604;2023-04-24T14:37:14;8.63;;;4.90;;
16820;SDS011;8527;49.740;6.604;2023-04-24T14:42:18;10.70;;;4.75;;
16820;SDS011;8527;49.740;6.604;2023-04-24T14:47:18;6.32;;;4.53;;
16820;SDS011;8527;49.740;6.604;2023-04-24T14:52:16;6.05;;;4.50;;
16820;SDS011;8527;49.740;6.604;2023-04-24T14:57:17;7.95;;;5.00;;
16820;SDS011;8527;49.740;6.604;2023-04-24T15:02:19;10.10;;;4.45;;
16820;SDS011;8527;49.740;6.604;2023-04-24T15:07:17;6.25;;;4.00;;
16820;SDS011;8527;49.740;6.604;2023-04-24T15:12:24;6.85;;;4.65;;
16820;SDS011;8527;49.740;6.604;2023-04-24T15:17:23;7.55;;;4.13;;
16820;SDS011;8527;49.740;6.604;2023-04-24T15:22:22;7.05;;;4.15;;
16820;SDS011;8527;49.740;6.604;2023-04-24T15:27:20;7.30;;;3.95;;
16820;SDS011;8527;49.740;6.604;2023-04-24T15:32:21;6.10;;;4.03;;
16820;SDS011;8527;49.740;6.604;2023-04-24T15:37:19;6.32;;;3.80;;
16820;SDS011;8527;49.740;6.604;2023-04-24T15:42:17;3.83;;;3.00;;
16820;SDS011;8527;49.740;6.604;2023-04-24T15:47:21;4.63;;;3.15;;
16820;SDS011;8527;49.740;6.604;2023-04-24T15:52:20;5.88;;;3.30;;
16820;SDS011;8527;49.740;6.604;2023-04-24T15:57:19;3.53;;;3.22;;
16820;SDS011;8527;49.740;6.604;2023-04-24T16:02:23;4.30;;;3.20;;
16820;SDS011;8527;49.740;6.604;2023-04-24T16:07:22;4.15;;;3.13;;
16820;SDS011;8527;49.740;6.604;2023-04-24T16:12:20;3.85;;;3.10;;
16820;SDS011;8527;49.740;6.604;2023-04-24T16:17:24;3.88;;;3.20;;
16820;SDS011;8527;49.740;6.604;2023-04-24T16:22:22;4.90;;;3.70;;
16820;SDS011;8527;49.740;6.604;2023-04-24T16:27:24;3.97;;;3.33;;
16820;SDS011;8527;49.740;6.604;2023-04-24T16:32:25;4.50;;;2.85;;
16820;SDS011;8527;49.740;6.604;2023-04-24T16:37:23;5.82;;;2.80;;
16820;SDS011;8527;49.740;6.604;2023-04-24T16:42:21;3.15;;;2.75;;
16820;SDS011;8527;49.740;6.604;2023-04-24T16:47:20;3.47;;;2.22;;
16820;SDS011;8527;49.740;6.604;2023-04-24T16:52:21;3.13;;;2.50;;
16820;SDS011;8527;49.740;6.604;2023-04-24T16:57:19;3.58;;;2.90;;
16820;SDS011;8527;49.740;6.604;2023-04-24T17:02:18;5.05;;;2.45;;
16820;SDS011;8527;49.740;6.604;2023-04-24T17:07:19;2.75;;;2.30;;
16820;SDS011;8527;49.740;6.604;2023-04-24T17:12:22;3.67;;;2.70;;
16820;SDS011;8527;49.740;6.604;2023-04-24T17:17:24;3.72;;;2.78;;
16820;SDS011;8527;49.740;6.604;2023-04-24T17:22:25;3.97;;;2.75;;
16820;SDS011;8527;49.740;6.604;2023-04-24T17:27:29;4.28;;;2.70;;
16820;SDS011;8527;49.740;6.604;2023-04-24T17:32:30;3.45;;;2.50;;
16820;SDS011;8527;49.740;6.604;2023-04-24T17:37:31;5.53;;;4.13;;
16820;SDS011;8527;49.740;6.604;2023-04-24T17:42:30;18.45;;;11.55;;
16820;SDS011;8527;49.740;6.604;2023-04-24T17:47:30;6.18;;;3.78;;
16820;SDS011;8527;49.740;6.604;2023-04-24T17:52:31;6.60;;;4.20;;
16820;SDS011;8527;49.740;6.604;2023-04-24T17:57:30;6.90;;;3.42;;
16820;SDS011;8527;49.740;6.604;2023-04-24T18:02:28;14.75;;;5.53;;
16820;SDS011;8527;49.740;6.604;2023-04-24T18:07:33;4.90;;;3.28;;
16820;SDS011;8527;49.740;6.604;2023-04-24T18:12:31;3.85;;;3.15;;
16820;SDS011;8527;49.740;6.604;2023-04-24T18:17:30;5.55;;;3.22;;
16820;SDS011;8527;49.740;6.604;2023-04-24T18:22:36;4.20;;;2.50;;
16820;SDS011;8527;49.740;6.604;2023-04-24T18:27:35;2.80;;;2.10;;
16820;SDS011;8527;49.740;6.604;2023-04-24T18:32:34;3.45;;;2.30;;
16820;SDS011;8527;49.740;6.604;2023-04-24T18:37:33;2.08;;;1.83;;
16820;SDS011;8527;49.740;6.604;2023-04-24T18:42:34;6.00;;;2.30;;
16820;SDS011;8527;49.740;6.604;2023-04-24T18:47:34;3.03;;;2.08;;
16820;SDS011;8527;49.740;6.604;2023-04-24T18:52:33;3.38;;;2.33;;
16820;SDS011;8527;49.740;6.604;2023-04-24T18:57:34;6.20;;;3.80;;
16820;SDS011;8527;49.740;6.604;2023-04-24T19:02:32;4.18;;;3.25;;
16820;SDS011;8527;49.740;6.604;2023-04-24T19:07:31;3.75;;;3.35;;
16820;SDS011;8527;49.740;6.604;2023-04-24T19:12:29;4.25;;;3.00;;
16820;SDS011;8527;49.740;6.604;2023-04-24T19:17:34;6.43;;;3.70;;
16820;SDS011;8527;49.740;6.604;2023-04-24T19:22:32;5.10;;;3.17;;
16820;SDS011;8527;49.740;6.604;2023-04-24T19:27:32;3.50;;;2.92;;
16820;SDS011;8527;49.740;6.604;2023-04-24T19:32:30;3.33;;;3.00;;
16820;SDS011;8527;49.740;6.604;2023-04-24T19:37:34;4.15;;;3.22;;
16820;SDS011;8527;49.740;6.604;2023-04-24T19:42:33;3.55;;;3.20;;
16820;SDS011;8527;49.740;6.604;2023-04-24T19:47:31;3.63;;;2.90;;
16820;SDS011;8527;49.740;6.604;2023-04-24T19:52:30;4.18;;;3.30;;
16820;SDS011;8527;49.740;6.604;2023-04-24T19:57:36;3.90;;;3.15;;
16820;SDS011;8527;49.740;6.604;2023-04-24T20:02:37;5.25;;;4.00;;
16820;SDS011;8527;49.740;6.604;2023-04-24T20:07:54;4.70;;;3.78;;
16820;SDS011;8527;49.740;6.604;2023-04-24T20:12:56;4.55;;;3.65;;
16820;SDS011;8527;49.740;6.604;2023-04-24T20:17:54;6.15;;;4.28;;
16820;SDS011;8527;49.740;6.604;2023-04-24T20:22:56;10.30;;;4.90;;
16820;SDS011;8527;49.740;6.604;2023-04-24T20:27:54;7.57;;;4.50;;
16820;SDS011;8527;49.740;6.604;2023-04-24T20:32:53;8.25;;;4.88;;
16820;SDS011;8527;49.740;6.604;2023-04-24T20:37:51;8.02;;;5.43;;
16820;SDS011;8527;49.740;6.604;2023-04-24T20:42:53;9.48;;;5.22;;
16820;SDS011;8527;49.740;6.604;2023-04-24T20:47:54;8.07;;;4.93;;
16820;SDS011;8527;49.740;6.604;2023-04-24T20:52:52;8.40;;;5.45;;
16820;SDS011;8527;49.740;6.604;2023-04-24T20:57:53;9.23;;;5.90;;
16820;SDS011;8527;49.740;6.604;2023-04-24T21:02:54;8.38;;;6.00;;
16820;SDS011;8527;49.740;6.604;2023-04-24T21:07:52;10.20;;;5.97;;
16820;SDS011;8527;49.740;6.604;2023-04-24T21:12:54;9.98;;;5.85;;
16820;SDS011;8527;49.740;6.604;2023-04-24T21:17:52;9.23;;;5.90;;
16820;SDS011;8527;49.740;6.604;2023-04-24T21:22:51;8.18;;;5.60;;
16820;SDS011;8527;49.740;6.604;2023-04-24T21:27:49;10.48;;;6.20;;
16820;SDS011;8527;49.740;6.604;2023-04-24T21:32:50;9.55;;;6.32;;
16820;SDS011;8527;49.740;6.604;2023-04-24T21:37:50;11.48;;;6.30;;
16820;SDS011;8527;49.740;6.604;2023-04-24T21:42:48;11.23;;;7.07;;
16820;SDS011;8527;49.740;6.604;2023-04-24T21:47:53;11.35;;;6.10;;
16820;SDS011;8527;49.740;6.604;2023-04-24T21:52:55;12.93;;;7.78;;
16820;SDS011;8527;49.740;6.604;2023-04-24T21:57:57;10.70;;;7.15;;
16820;SDS011;8527;49.740;6.604;2023-04-24T22:03:00;11.98;;;7.45;;
16820;SDS011;8527;49.740;6.604;2023-04-24T22:07:58;11.32;;;6.90;;
16820;SDS011;8527;49.740;6.604;2023-04-24T22:12:57;14.40;;;7.75;;
16820;SDS011;8527;49.740;6.604;2023-04-24T22:17:55;13.07;;;8.27;;
16820;SDS011;8527;49.740;6.604;2023-04-24T22:22:59;12.68;;;7.50;;
16820;SDS011;8527;49.740;6.604;2023-04-24T22:27:58;15.65;;;8.43;;
16820;SDS011;8527;49.740;6.604;2023-04-24T22:32:59;17.30;;;8.68;;
16820;SDS011;8527;49.740;6.604;2023-04-24T22:38:03;10.65;;;7.55;;
16820;SDS011;8527;49.740;6.604;2023-04-24T22:43:04;14.60;;;8.40;;
16820;SDS011;8527;49.740;6.604;2023-04-24T22:48:03;12.15;;;8.75;;
16820;SDS011;8527;49.740;6.604;2023-04-24T22:53:04;12.50;;;8.32;;
16820;SDS011;8527;49.740;6.604;2023-04-24T22:58:05;11.88;;;8.18;;
16820;SDS011;8527;49.740;6.604;2023-04-24T23:03:04;12.40;;;7.80;;
16820;SDS011;8527;49.740;6.604;2023-04-24T23:08:05;13.63;;;8.20;;
16820;SDS011;8527;49.740;6.604;2023-04-24T23:13:03;12.40;;;7.38;;
16820;SDS011;8527;49.740;6.604;2023-04-24T23:18:05;13.65;;;8.25;;
16820;SDS011;8527;49.740;6.604;2023-04-24T23:23:09;12.98;;;8.50;;
16820;SDS011;8527;49.740;6.604;2023-04-24T23:28:10;10.63;;;7.90;;
16820;SDS011;8527;49.740;6.604;2023-04-24T23:33:12;15.32;;;8.70;;
16820;SDS011;8527;49.740;6.604;2023-04-24T23:38:13;13.13;;;8.38;;
16820;SDS011;8527;49.740;6.604;2023-04-24T23:43:11;11.38;;;7.90;;
16820;SDS011;8527;49.740;6.604;2023-04-24T23:48:10;12.88;;;7.63;;
16820;SDS011;8527;49.740;6.604;2023-04-24T23:53:08;14.00;;;8.18;;
16820;SDS011;8527;49.740;6.604;2023-04-24T23:58:09;12.60;;;8.15;;
